sensor_id;sensor_type;location;lat;lon;timestamp;temperature;humidity
41630;DHT22;27322;49.488;8.480;2023-09-19T00:02:01;18.50;99.90
41630;DHT22;27322;49.488;8.480;2023-09-19T00:04:34;18.50;99.90
41630;DHT22;27322;49.488;8.480;2023-09-19T00:07:00;18.50;99.90
41630;DHT22;27322;49.488;8.480;2023-09-19T00:09:27;18.50;99.90
41630;DHT22;27322;49.488;8.480;2023-09-19T00:11:53;18.50;99.90
41630;DHT22;27322;49.488;8.480;2023-09-19T00:14:19;18.50;99.90
41630;DHT22;27322;49.488;8.480;2023-09-19T00:16:45;18.50;99.90
41630;DHT22;27322;49.488;8.480;2023-09-19T00:19:11;18.40;99.90
41630;DHT22;27322;49.488;8.480;2023-09-19T00:21:38;18.40;99.90
41630;DHT22;27322;49.488;8.480;2023-09-19T00:24:04;18.40;99.90
41630;DHT22;27322;49.488;8.480;2023-09-19T00:26:32;18.40;99.90
41630;DHT22;27322;49.488;8.480;2023-09-19T00:28:57;18.40;99.90
41630;DHT22;27322;49.488;8.480;2023-09-19T00:31:30;18.40;99.90
41630;DHT22;27322;49.488;8.480;2023-09-19T00:33:55;18.40;99.90
41630;DHT22;27322;49.488;8.480;2023-09-19T00:36:25;18.40;99.90
41630;DHT22;27322;49.488;8.480;2023-09-19T00:38:51;18.40;99.90
41630;DHT22;27322;49.488;8.480;2023-09-19T00:41:16;18.40;99.90
41630;DHT22;27322;49.488;8.480;2023-09-19T00:43:42;18.40;99.90
41630;DHT22;27322;49.488;8.480;2023-09-19T00:46:08;18.40;99.90
41630;DHT22;27322;49.488;8.480;2023-09-19T00:48:40;18.40;99.90
41630;DHT22;27322;49.488;8.480;2023-09-19T00:51:06;18.40;99.90
41630;DHT22;27322;49.488;8.480;2023-09-19T00:53:32;18.40;99.90
41630;DHT22;27322;49.488;8.480;2023-09-19T00:55:59;18.40;99.90
41630;DHT22;27322;49.488;8.480;2023-09-19T00:58:25;18.40;99.90
41630;DHT22;27322;49.488;8.480;2023-09-19T01:00:51;18.40;99.90
41630;DHT22;27322;49.488;8.480;2023-09-19T01:03:18;18.40;99.90
41630;DHT22;27322;49.488;8.480;2023-09-19T01:05:44;18.40;99.90
41630;DHT22;27322;49.488;8.480;2023-09-19T01:08:10;18.40;99.90
41630;DHT22;27322;49.488;8.480;2023-09-19T01:10:46;18.40;99.90
41630;DHT22;27322;49.488;8.480;2023-09-19T01:21:35;18.40;99.90
41630;DHT22;27322;49.488;8.480;2023-09-19T01:27:35;18.40;99.90
41630;DHT22;27322;49.488;8.480;2023-09-19T01:30:14;18.40;99.90
41630;DHT22;27322;49.488;8.480;2023-09-19T01:32:42;18.40;99.90
41630;DHT22;27322;49.488;8.480;2023-09-19T01:35:08;18.40;99.90
41630;DHT22;27322;49.488;8.480;2023-09-19T01:37:38;18.40;99.90
41630;DHT22;27322;49.488;8.480;2023-09-19T01:40:06;18.40;99.90
41630;DHT22;27322;49.488;8.480;2023-09-19T01:43:05;18.40;99.90
41630;DHT22;27322;49.488;8.480;2023-09-19T01:45:59;18.40;99.90
41630;DHT22;27322;49.488;8.480;2023-09-19T01:51:09;18.40;99.90
41630;DHT22;27322;49.488;8.480;2023-09-19T01:53:53;18.40;99.90
41630;DHT22;27322;49.488;8.480;2023-09-19T01:56:36;18.40;99.90
41630;DHT22;27322;49.488;8.480;2023-09-19T01:59:13;18.40;99.90
41630;DHT22;27322;49.488;8.480;2023-09-19T02:01:40;18.40;99.90
41630;DHT22;27322;49.488;8.480;2023-09-19T02:04:10;18.40;99.90
41630;DHT22;27322;49.488;8.480;2023-09-19T02:06:39;18.40;99.90
41630;DHT22;27322;49.488;8.480;2023-09-19T02:09:05;18.40;99.90
41630;DHT22;27322;49.488;8.480;2023-09-19T02:11:31;18.50;99.90
41630;DHT22;27322;49.488;8.480;2023-09-19T02:13:57;18.40;99.90
41630;DHT22;27322;49.488;8.480;2023-09-19T02:16:23;18.50;99.90
41630;DHT22;27322;49.488;8.480;2023-09-19T02:18:49;18.50;99.90
41630;DHT22;27322;49.488;8.480;2023-09-19T02:21:15;18.40;99.90
41630;DHT22;27322;49.488;8.480;2023-09-19T02:23:43;18.50;99.90
41630;DHT22;27322;49.488;8.480;2023-09-19T02:26:08;18.50;99.90
41630;DHT22;27322;49.488;8.480;2023-09-19T02:28:34;18.50;99.90
41630;DHT22;27322;49.488;8.480;2023-09-19T02:31:01;18.50;99.90
41630;DHT22;27322;49.488;8.480;2023-09-19T02:33:27;18.50;99.90
41630;DHT22;27322;49.488;8.480;2023-09-19T02:35:57;18.50;99.90
41630;DHT22;27322;49.488;8.480;2023-09-19T02:38:26;18.50;99.90
41630;DHT22;27322;49.488;8.480;2023-09-19T02:40:55;18.50;99.90
41630;DHT22;27322;49.488;8.480;2023-09-19T02:43:21;18.50;99.90
41630;DHT22;27322;49.488;8.480;2023-09-19T02:45:47;18.50;99.90
41630;DHT22;27322;49.488;8.480;2023-09-19T02:48:15;18.50;99.90
41630;DHT22;27322;49.488;8.480;2023-09-19T02:50:41;18.50;99.90
41630;DHT22;27322;49.488;8.480;2023-09-19T02:53:07;18.50;99.90
41630;DHT22;27322;49.488;8.480;2023-09-19T02:55:33;18.50;99.90
41630;DHT22;27322;49.488;8.480;2023-09-19T02:57:59;18.50;99.90
41630;DHT22;27322;49.488;8.480;2023-09-19T03:00:27;18.50;99.90
41630;DHT22;27322;49.488;8.480;2023-09-19T03:02:56;18.50;99.90
41630;DHT22;27322;49.488;8.480;2023-09-19T03:05:22;18.50;99.90
41630;DHT22;27322;49.488;8.480;2023-09-19T03:07:51;18.50;99.90
41630;DHT22;27322;49.488;8.480;2023-09-19T03:10:21;18.50;99.90
41630;DHT22;27322;49.488;8.480;2023-09-19T03:12:47;18.40;99.90
41630;DHT22;27322;49.488;8.480;2023-09-19T03:15:14;18.40;99.90
41630;DHT22;27322;49.488;8.480;2023-09-19T03:17:48;18.40;99.90
41630;DHT22;27322;49.488;8.480;2023-09-19T03:20:14;18.40;99.90
41630;DHT22;27322;49.488;8.480;2023-09-19T03:22:43;18.40;99.90
41630;DHT22;27322;49.488;8.480;2023-09-19T03:25:09;18.40;99.90
41630;DHT22;27322;49.488;8.480;2023-09-19T03:27:37;18.40;99.90
41630;DHT22;27322;49.488;8.480;2023-09-19T03:30:04;18.40;99.90
41630;DHT22;27322;49.488;8.480;2023-09-19T03:32:46;18.40;99.90
41630;DHT22;27322;49.488;8.480;2023-09-19T03:35:12;18.40;99.90
41630;DHT22;27322;49.488;8.480;2023-09-19T03:37:40;18.30;99.90
41630;DHT22;27322;49.488;8.480;2023-09-19T03:40:08;18.30;99.90
41630;DHT22;27322;49.488;8.480;2023-09-19T03:42:34;18.30;99.90
41630;DHT22;27322;49.488;8.480;2023-09-19T03:45:02;18.30;99.90
41630;DHT22;27322;49.488;8.480;2023-09-19T03:47:31;18.30;99.90
41630;DHT22;27322;49.488;8.480;2023-09-19T03:49:56;18.30;99.90
41630;DHT22;27322;49.488;8.480;2023-09-19T03:52:22;18.20;99.90
41630;DHT22;27322;49.488;8.480;2023-09-19T03:54:47;18.20;99.90
41630;DHT22;27322;49.488;8.480;2023-09-19T03:57:13;18.20;99.90
41630;DHT22;27322;49.488;8.480;2023-09-19T03:59:41;18.10;99.90
41630;DHT22;27322;49.488;8.480;2023-09-19T04:02:08;18.10;99.90
41630;DHT22;27322;49.488;8.480;2023-09-19T04:04:38;18.10;99.90
41630;DHT22;27322;49.488;8.480;2023-09-19T04:07:04;18.10;99.90
41630;DHT22;27322;49.488;8.480;2023-09-19T04:09:30;18.00;99.90
41630;DHT22;27322;49.488;8.480;2023-09-19T04:11:55;18.00;99.90
41630;DHT22;27322;49.488;8.480;2023-09-19T04:14:21;18.00;99.90
41630;DHT22;27322;49.488;8.480;2023-09-19T04:16:46;18.00;99.90
41630;DHT22;27322;49.488;8.480;2023-09-19T04:19:12;18.00;99.90
41630;DHT22;27322;49.488;8.480;2023-09-19T04:21:38;18.00;99.90
41630;DHT22;27322;49.488;8.480;2023-09-19T04:24:03;18.00;99.90
41630;DHT22;27322;49.488;8.480;2023-09-19T04:26:29;18.00;99.90
41630;DHT22;27322;49.488;8.480;2023-09-19T04:28:55;17.90;99.90
41630;DHT22;27322;49.488;8.480;2023-09-19T04:31:21;17.90;99.90
41630;DHT22;27322;49.488;8.480;2023-09-19T04:33:47;17.90;99.90
41630;DHT22;27322;49.488;8.480;2023-09-19T04:36:13;17.90;99.90
41630;DHT22;27322;49.488;8.480;2023-09-19T04:38:39;17.90;99.90
41630;DHT22;27322;49.488;8.480;2023-09-19T04:41:05;17.80;99.90
41630;DHT22;27322;49.488;8.480;2023-09-19T04:43:30;17.80;99.90
41630;DHT22;27322;49.488;8.480;2023-09-19T04:45:56;17.80;99.90
41630;DHT22;27322;49.488;8.480;2023-09-19T04:48:22;17.70;99.90
41630;DHT22;27322;49.488;8.480;2023-09-19T04:50:51;17.70;99.90
41630;DHT22;27322;49.488;8.480;2023-09-19T04:53:19;17.70;99.90
41630;DHT22;27322;49.488;8.480;2023-09-19T04:55:51;17.70;99.90
41630;DHT22;27322;49.488;8.480;2023-09-19T04:58:18;17.70;99.90
41630;DHT22;27322;49.488;8.480;2023-09-19T05:00:45;17.70;99.90
41630;DHT22;27322;49.488;8.480;2023-09-19T05:03:11;17.70;99.90
41630;DHT22;27322;49.488;8.480;2023-09-19T05:05:36;17.70;99.90
41630;DHT22;27322;49.488;8.480;2023-09-19T05:08:04;17.70;99.90
41630;DHT22;27322;49.488;8.480;2023-09-19T05:10:31;17.70;99.90
41630;DHT22;27322;49.488;8.480;2023-09-19T05:12:57;17.70;99.90
41630;DHT22;27322;49.488;8.480;2023-09-19T05:15:23;17.70;99.90
41630;DHT22;27322;49.488;8.480;2023-09-19T05:17:52;17.70;99.90
41630;DHT22;27322;49.488;8.480;2023-09-19T05:20:20;17.70;99.90
41630;DHT22;27322;49.488;8.480;2023-09-19T05:23:00;17.70;99.90
41630;DHT22;27322;49.488;8.480;2023-09-19T05:25:28;17.70;99.90
41630;DHT22;27322;49.488;8.480;2023-09-19T05:27:58;17.70;99.90
41630;DHT22;27322;49.488;8.480;2023-09-19T05:30:25;17.70;99.90
41630;DHT22;27322;49.488;8.480;2023-09-19T05:32:53;17.70;99.90
41630;DHT22;27322;49.488;8.480;2023-09-19T05:35:19;17.70;99.90
41630;DHT22;27322;49.488;8.480;2023-09-19T05:37:47;17.70;99.90
41630;DHT22;27322;49.488;8.480;2023-09-19T05:40:14;17.70;99.90
41630;DHT22;27322;49.488;8.480;2023-09-19T05:42:41;17.70;99.90
41630;DHT22;27322;49.488;8.480;2023-09-19T05:45:09;17.70;99.90
41630;DHT22;27322;49.488;8.480;2023-09-19T05:47:41;17.80;99.90
41630;DHT22;27322;49.488;8.480;2023-09-19T05:50:09;17.70;99.90
41630;DHT22;27322;49.488;8.480;2023-09-19T05:52:35;17.70;99.90
41630;DHT22;27322;49.488;8.480;2023-09-19T05:55:05;17.80;99.90
41630;DHT22;27322;49.488;8.480;2023-09-19T05:57:35;17.80;99.90
41630;DHT22;27322;49.488;8.480;2023-09-19T06:00:01;17.80;99.90
41630;DHT22;27322;49.488;8.480;2023-09-19T06:02:27;17.80;99.90
41630;DHT22;27322;49.488;8.480;2023-09-19T06:04:55;17.80;99.90
41630;DHT22;27322;49.488;8.480;2023-09-19T06:07:24;17.80;99.90
41630;DHT22;27322;49.488;8.480;2023-09-19T06:09:52;17.80;99.90
41630;DHT22;27322;49.488;8.480;2023-09-19T06:12:21;17.80;99.90
41630;DHT22;27322;49.488;8.480;2023-09-19T06:14:46;17.80;99.90
41630;DHT22;27322;49.488;8.480;2023-09-19T06:17:13;17.80;99.90
41630;DHT22;27322;49.488;8.480;2023-09-19T06:19:39;17.90;99.90
41630;DHT22;27322;49.488;8.480;2023-09-19T06:22:05;17.90;99.90
41630;DHT22;27322;49.488;8.480;2023-09-19T06:24:30;17.90;99.90
41630;DHT22;27322;49.488;8.480;2023-09-19T06:26:56;17.90;99.90
41630;DHT22;27322;49.488;8.480;2023-09-19T06:29:22;17.90;99.90
41630;DHT22;27322;49.488;8.480;2023-09-19T06:31:48;17.90;99.90
41630;DHT22;27322;49.488;8.480;2023-09-19T06:34:14;17.90;99.90
41630;DHT22;27322;49.488;8.480;2023-09-19T06:36:41;18.00;99.90
41630;DHT22;27322;49.488;8.480;2023-09-19T06:39:07;18.00;99.90
41630;DHT22;27322;49.488;8.480;2023-09-19T06:41:39;18.00;99.90
41630;DHT22;27322;49.488;8.480;2023-09-19T06:44:05;18.00;99.90
41630;DHT22;27322;49.488;8.480;2023-09-19T06:46:31;18.00;99.90
41630;DHT22;27322;49.488;8.480;2023-09-19T06:49:00;18.00;99.90
41630;DHT22;27322;49.488;8.480;2023-09-19T06:51:26;18.00;99.90
41630;DHT22;27322;49.488;8.480;2023-09-19T06:53:51;18.10;99.90
41630;DHT22;27322;49.488;8.480;2023-09-19T06:56:19;18.10;99.90
41630;DHT22;27322;49.488;8.480;2023-09-19T06:58:49;18.10;99.90
41630;DHT22;27322;49.488;8.480;2023-09-19T07:01:15;18.10;99.90
41630;DHT22;27322;49.488;8.480;2023-09-19T07:03:40;18.10;99.90
41630;DHT22;27322;49.488;8.480;2023-09-19T07:06:06;18.10;99.90
41630;DHT22;27322;49.488;8.480;2023-09-19T07:08:32;18.10;99.90
41630;DHT22;27322;49.488;8.480;2023-09-19T07:10:58;18.10;99.90
41630;DHT22;27322;49.488;8.480;2023-09-19T07:13:23;18.10;99.90
41630;DHT22;27322;49.488;8.480;2023-09-19T07:15:50;18.20;99.90
41630;DHT22;27322;49.488;8.480;2023-09-19T07:18:16;18.20;99.90
41630;DHT22;27322;49.488;8.480;2023-09-19T07:20:46;18.20;99.90
41630;DHT22;27322;49.488;8.480;2023-09-19T07:23:18;18.20;99.90
41630;DHT22;27322;49.488;8.480;2023-09-19T07:25:47;18.30;99.90
41630;DHT22;27322;49.488;8.480;2023-09-19T07:28:14;18.30;99.90
41630;DHT22;27322;49.488;8.480;2023-09-19T07:30:39;18.30;99.90
41630;DHT22;27322;49.488;8.480;2023-09-19T07:33:07;18.30;99.90
41630;DHT22;27322;49.488;8.480;2023-09-19T07:35:33;18.40;99.90
41630;DHT22;27322;49.488;8.480;2023-09-19T07:37:59;18.40;99.90
41630;DHT22;27322;49.488;8.480;2023-09-19T07:40:27;18.40;99.90
41630;DHT22;27322;49.488;8.480;2023-09-19T07:42:54;18.40;99.90
41630;DHT22;27322;49.488;8.480;2023-09-19T07:45:20;18.50;99.90
41630;DHT22;27322;49.488;8.480;2023-09-19T07:47:49;18.50;99.90
41630;DHT22;27322;49.488;8.480;2023-09-19T07:50:18;18.50;99.90
41630;DHT22;27322;49.488;8.480;2023-09-19T07:52:45;18.60;99.90
41630;DHT22;27322;49.488;8.480;2023-09-19T07:55:11;18.60;99.90
41630;DHT22;27322;49.488;8.480;2023-09-19T07:57:41;18.70;99.90
41630;DHT22;27322;49.488;8.480;2023-09-19T08:00:08;18.70;99.90
41630;DHT22;27322;49.488;8.480;2023-09-19T08:02:36;18.70;99.90
41630;DHT22;27322;49.488;8.480;2023-09-19T08:05:03;18.70;99.90
41630;DHT22;27322;49.488;8.480;2023-09-19T08:07:32;18.80;99.90
41630;DHT22;27322;49.488;8.480;2023-09-19T08:09:58;18.80;99.90
41630;DHT22;27322;49.488;8.480;2023-09-19T08:12:24;18.80;99.90
41630;DHT22;27322;49.488;8.480;2023-09-19T08:14:50;18.80;99.90
41630;DHT22;27322;49.488;8.480;2023-09-19T08:17:16;18.90;99.90
41630;DHT22;27322;49.488;8.480;2023-09-19T08:19:42;18.90;99.90
41630;DHT22;27322;49.488;8.480;2023-09-19T08:22:10;19.00;99.90
41630;DHT22;27322;49.488;8.480;2023-09-19T08:24:36;19.00;99.90
41630;DHT22;27322;49.488;8.480;2023-09-19T08:27:04;19.00;99.90
41630;DHT22;27322;49.488;8.480;2023-09-19T08:29:30;19.00;99.90
41630;DHT22;27322;49.488;8.480;2023-09-19T08:31:57;19.00;99.90
41630;DHT22;27322;49.488;8.480;2023-09-19T08:34:23;19.00;99.90
41630;DHT22;27322;49.488;8.480;2023-09-19T08:36:53;19.10;99.90
41630;DHT22;27322;49.488;8.480;2023-09-19T08:39:25;19.10;99.90
41630;DHT22;27322;49.488;8.480;2023-09-19T08:41:57;19.10;99.90
41630;DHT22;27322;49.488;8.480;2023-09-19T08:44:24;19.10;99.90
41630;DHT22;27322;49.488;8.480;2023-09-19T08:46:54;19.20;99.90
41630;DHT22;27322;49.488;8.480;2023-09-19T08:49:26;19.20;99.90
41630;DHT22;27322;49.488;8.480;2023-09-19T08:52:05;19.20;99.90
41630;DHT22;27322;49.488;8.480;2023-09-19T08:54:37;19.20;99.90
41630;DHT22;27322;49.488;8.480;2023-09-19T08:57:07;19.20;99.90
41630;DHT22;27322;49.488;8.480;2023-09-19T08:59:50;19.20;99.90
41630;DHT22;27322;49.488;8.480;2023-09-19T09:02:16;19.20;99.90
41630;DHT22;27322;49.488;8.480;2023-09-19T09:04:45;19.20;99.90
41630;DHT22;27322;49.488;8.480;2023-09-19T09:07:12;19.20;99.90
41630;DHT22;27322;49.488;8.480;2023-09-19T09:09:39;19.30;99.90
41630;DHT22;27322;49.488;8.480;2023-09-19T09:12:12;19.30;99.90
41630;DHT22;27322;49.488;8.480;2023-09-19T09:14:39;19.30;99.90
41630;DHT22;27322;49.488;8.480;2023-09-19T09:17:05;19.30;99.90
41630;DHT22;27322;49.488;8.480;2023-09-19T09:19:31;19.40;99.90
41630;DHT22;27322;49.488;8.480;2023-09-19T09:22:10;19.40;99.90
41630;DHT22;27322;49.488;8.480;2023-09-19T09:24:37;19.40;99.90
41630;DHT22;27322;49.488;8.480;2023-09-19T09:27:06;19.40;99.90
41630;DHT22;27322;49.488;8.480;2023-09-19T09:29:46;19.40;99.90
41630;DHT22;27322;49.488;8.480;2023-09-19T09:34:49;19.40;99.90
41630;DHT22;27322;49.488;8.480;2023-09-19T09:37:17;19.40;99.90
41630;DHT22;27322;49.488;8.480;2023-09-19T09:39:52;19.40;99.90
41630;DHT22;27322;49.488;8.480;2023-09-19T09:42:32;19.40;99.90
41630;DHT22;27322;49.488;8.480;2023-09-19T09:47:57;19.40;99.90
41630;DHT22;27322;49.488;8.480;2023-09-19T09:50:28;19.40;99.90
41630;DHT22;27322;49.488;8.480;2023-09-19T09:56:06;19.30;99.90
41630;DHT22;27322;49.488;8.480;2023-09-19T09:58:40;19.40;99.90
41630;DHT22;27322;49.488;8.480;2023-09-19T10:01:14;19.40;99.90
41630;DHT22;27322;49.488;8.480;2023-09-19T10:03:42;19.40;99.90
41630;DHT22;27322;49.488;8.480;2023-09-19T10:06:15;19.40;99.90
41630;DHT22;27322;49.488;8.480;2023-09-19T10:09:09;19.40;99.90
41630;DHT22;27322;49.488;8.480;2023-09-19T10:11:37;19.50;99.90
41630;DHT22;27322;49.488;8.480;2023-09-19T10:14:07;19.50;99.90
41630;DHT22;27322;49.488;8.480;2023-09-19T10:16:36;19.50;99.90
41630;DHT22;27322;49.488;8.480;2023-09-19T10:19:08;19.50;99.90
41630;DHT22;27322;49.488;8.480;2023-09-19T10:21:36;19.70;99.90
41630;DHT22;27322;49.488;8.480;2023-09-19T10:24:05;20.10;99.90
41630;DHT22;27322;49.488;8.480;2023-09-19T10:26:37;20.80;99.90
41630;DHT22;27322;49.488;8.480;2023-09-19T10:29:06;21.30;99.90
41630;DHT22;27322;49.488;8.480;2023-09-19T10:31:33;21.60;99.90
41630;DHT22;27322;49.488;8.480;2023-09-19T10:34:03;21.70;99.90
41630;DHT22;27322;49.488;8.480;2023-09-19T10:36:33;21.80;99.90
41630;DHT22;27322;49.488;8.480;2023-09-19T10:39:02;21.70;99.90
41630;DHT22;27322;49.488;8.480;2023-09-19T10:41:32;21.60;99.90
41630;DHT22;27322;49.488;8.480;2023-09-19T10:44:03;21.70;99.90
41630;DHT22;27322;49.488;8.480;2023-09-19T10:46:32;21.90;99.90
41630;DHT22;27322;49.488;8.480;2023-09-19T10:49:02;22.10;99.90
41630;DHT22;27322;49.488;8.480;2023-09-19T10:51:38;22.30;99.90
41630;DHT22;27322;49.488;8.480;2023-09-19T10:54:12;22.50;99.90
41630;DHT22;27322;49.488;8.480;2023-09-19T10:56:43;22.50;99.90
41630;DHT22;27322;49.488;8.480;2023-09-19T10:59:17;22.40;99.90
41630;DHT22;27322;49.488;8.480;2023-09-19T11:01:54;22.20;99.90
41630;DHT22;27322;49.488;8.480;2023-09-19T11:04:30;22.00;99.90
41630;DHT22;27322;49.488;8.480;2023-09-19T11:07:01;21.80;99.90
41630;DHT22;27322;49.488;8.480;2023-09-19T11:09:51;21.70;99.90
41630;DHT22;27322;49.488;8.480;2023-09-19T11:14:57;21.40;99.90
41630;DHT22;27322;49.488;8.480;2023-09-19T11:17:39;21.40;99.90
41630;DHT22;27322;49.488;8.480;2023-09-19T11:28:28;21.10;99.90
41630;DHT22;27322;49.488;8.480;2023-09-19T11:30:56;21.10;99.90
41630;DHT22;27322;49.488;8.480;2023-09-19T11:33:32;21.10;99.90
41630;DHT22;27322;49.488;8.480;2023-09-19T11:36:26;21.10;99.90
41630;DHT22;27322;49.488;8.480;2023-09-19T11:39:01;21.10;99.90
41630;DHT22;27322;49.488;8.480;2023-09-19T11:41:42;21.10;99.90
41630;DHT22;27322;49.488;8.480;2023-09-19T11:49:26;21.30;99.90
41630;DHT22;27322;49.488;8.480;2023-09-19T11:51:57;21.30;99.90
41630;DHT22;27322;49.488;8.480;2023-09-19T11:54:24;21.30;99.90
41630;DHT22;27322;49.488;8.480;2023-09-19T11:56:54;21.30;99.90
41630;DHT22;27322;49.488;8.480;2023-09-19T11:59:21;21.30;99.90
41630;DHT22;27322;49.488;8.480;2023-09-19T12:01:51;21.30;99.90
41630;DHT22;27322;49.488;8.480;2023-09-19T12:04:42;21.30;99.90
41630;DHT22;27322;49.488;8.480;2023-09-19T12:07:15;21.30;99.90
41630;DHT22;27322;49.488;8.480;2023-09-19T12:09:48;21.20;99.90
41630;DHT22;27322;49.488;8.480;2023-09-19T12:14:53;21.20;99.90
41630;DHT22;27322;49.488;8.480;2023-09-19T12:17:19;21.30;99.90
41630;DHT22;27322;49.488;8.480;2023-09-19T12:19:56;21.20;99.80
41630;DHT22;27322;49.488;8.480;2023-09-19T12:22:22;21.20;99.90
41630;DHT22;27322;49.488;8.480;2023-09-19T12:24:47;21.20;99.90
41630;DHT22;27322;49.488;8.480;2023-09-19T12:27:13;21.20;99.60
41630;DHT22;27322;49.488;8.480;2023-09-19T12:29:43;21.20;99.40
41630;DHT22;27322;49.488;8.480;2023-09-19T12:32:09;21.20;99.90
41630;DHT22;27322;49.488;8.480;2023-09-19T12:34:36;21.20;99.90
41630;DHT22;27322;49.488;8.480;2023-09-19T12:39:44;21.20;99.40
41630;DHT22;27322;49.488;8.480;2023-09-19T12:42:15;21.20;99.40
41630;DHT22;27322;49.488;8.480;2023-09-19T12:44:45;21.20;99.10
41630;DHT22;27322;49.488;8.480;2023-09-19T12:47:13;21.20;99.70
41630;DHT22;27322;49.488;8.480;2023-09-19T12:50:06;21.20;99.10
41630;DHT22;27322;49.488;8.480;2023-09-19T12:52:41;21.20;99.20
41630;DHT22;27322;49.488;8.480;2023-09-19T12:55:18;21.20;99.60
41630;DHT22;27322;49.488;8.480;2023-09-19T12:58:15;21.20;99.90
41630;DHT22;27322;49.488;8.480;2023-09-19T13:00:45;21.20;99.90
41630;DHT22;27322;49.488;8.480;2023-09-19T13:03:24;21.20;99.90
41630;DHT22;27322;49.488;8.480;2023-09-19T13:06:01;21.20;99.90
41630;DHT22;27322;49.488;8.480;2023-09-19T13:08:33;21.20;99.90
41630;DHT22;27322;49.488;8.480;2023-09-19T13:11:04;21.30;99.90
41630;DHT22;27322;49.488;8.480;2023-09-19T13:13:36;21.30;99.80
41630;DHT22;27322;49.488;8.480;2023-09-19T13:16:03;21.30;99.90
41630;DHT22;27322;49.488;8.480;2023-09-19T13:18:41;21.30;99.90
41630;DHT22;27322;49.488;8.480;2023-09-19T13:21:09;21.40;99.90
41630;DHT22;27322;49.488;8.480;2023-09-19T13:23:43;21.30;99.90
41630;DHT22;27322;49.488;8.480;2023-09-19T13:26:10;21.40;99.90
41630;DHT22;27322;49.488;8.480;2023-09-19T13:28:37;21.40;99.70
41630;DHT22;27322;49.488;8.480;2023-09-19T13:31:02;21.40;99.90
41630;DHT22;27322;49.488;8.480;2023-09-19T13:33:28;21.40;99.80
41630;DHT22;27322;49.488;8.480;2023-09-19T13:35:54;21.40;99.80
41630;DHT22;27322;49.488;8.480;2023-09-19T13:38:20;21.40;99.60
41630;DHT22;27322;49.488;8.480;2023-09-19T13:40:47;21.40;99.40
41630;DHT22;27322;49.488;8.480;2023-09-19T13:43:13;21.50;99.10
41630;DHT22;27322;49.488;8.480;2023-09-19T13:45:39;21.50;99.20
41630;DHT22;27322;49.488;8.480;2023-09-19T13:48:08;21.50;99.50
41630;DHT22;27322;49.488;8.480;2023-09-19T13:50:37;21.50;99.60
41630;DHT22;27322;49.488;8.480;2023-09-19T13:53:07;21.50;99.30
41630;DHT22;27322;49.488;8.480;2023-09-19T13:55:33;21.50;99.70
41630;DHT22;27322;49.488;8.480;2023-09-19T13:57:58;21.50;99.90
41630;DHT22;27322;49.488;8.480;2023-09-19T14:00:24;21.40;99.70
41630;DHT22;27322;49.488;8.480;2023-09-19T14:02:50;21.50;99.60
41630;DHT22;27322;49.488;8.480;2023-09-19T14:05:16;21.50;99.40
41630;DHT22;27322;49.488;8.480;2023-09-19T14:07:45;21.60;99.20
41630;DHT22;27322;49.488;8.480;2023-09-19T14:10:11;21.70;99.10
41630;DHT22;27322;49.488;8.480;2023-09-19T14:12:40;21.90;99.40
41630;DHT22;27322;49.488;8.480;2023-09-19T14:15:07;21.90;99.00
41630;DHT22;27322;49.488;8.480;2023-09-19T14:17:33;21.90;99.10
41630;DHT22;27322;49.488;8.480;2023-09-19T14:19:59;21.90;98.80
41630;DHT22;27322;49.488;8.480;2023-09-19T14:22:24;21.80;98.70
41630;DHT22;27322;49.488;8.480;2023-09-19T14:24:50;21.80;98.70
41630;DHT22;27322;49.488;8.480;2023-09-19T14:27:16;21.80;98.70
41630;DHT22;27322;49.488;8.480;2023-09-19T14:29:42;21.80;99.00
41630;DHT22;27322;49.488;8.480;2023-09-19T14:32:07;21.70;99.10
41630;DHT22;27322;49.488;8.480;2023-09-19T14:34:33;21.70;99.50
41630;DHT22;27322;49.488;8.480;2023-09-19T14:36:59;21.70;99.10
41630;DHT22;27322;49.488;8.480;2023-09-19T14:39:24;21.70;99.20
41630;DHT22;27322;49.488;8.480;2023-09-19T14:41:50;21.70;99.10
41630;DHT22;27322;49.488;8.480;2023-09-19T14:44:16;21.60;99.10
41630;DHT22;27322;49.488;8.480;2023-09-19T14:46:42;21.60;99.10
41630;DHT22;27322;49.488;8.480;2023-09-19T14:49:09;21.60;99.40
41630;DHT22;27322;49.488;8.480;2023-09-19T14:51:35;21.60;99.40
41630;DHT22;27322;49.488;8.480;2023-09-19T14:54:03;21.60;99.60
41630;DHT22;27322;49.488;8.480;2023-09-19T14:56:29;21.60;99.90
41630;DHT22;27322;49.488;8.480;2023-09-19T14:58:56;21.50;99.90
41630;DHT22;27322;49.488;8.480;2023-09-19T15:01:22;21.50;99.90
41630;DHT22;27322;49.488;8.480;2023-09-19T15:03:47;21.50;99.90
41630;DHT22;27322;49.488;8.480;2023-09-19T15:06:15;21.50;99.60
41630;DHT22;27322;49.488;8.480;2023-09-19T15:08:43;21.50;99.50
41630;DHT22;27322;49.488;8.480;2023-09-19T15:11:16;21.50;99.90
41630;DHT22;27322;49.488;8.480;2023-09-19T15:13:43;21.50;99.90
41630;DHT22;27322;49.488;8.480;2023-09-19T15:16:09;21.40;99.80
41630;DHT22;27322;49.488;8.480;2023-09-19T15:18:40;21.50;99.90
41630;DHT22;27322;49.488;8.480;2023-09-19T15:21:07;21.50;99.90
41630;DHT22;27322;49.488;8.480;2023-09-19T15:23:35;21.50;99.90
41630;DHT22;27322;49.488;8.480;2023-09-19T15:26:02;21.40;99.90
41630;DHT22;27322;49.488;8.480;2023-09-19T15:28:28;21.50;99.90
41630;DHT22;27322;49.488;8.480;2023-09-19T15:31:09;21.50;99.90
41630;DHT22;27322;49.488;8.480;2023-09-19T15:33:35;21.50;99.90
41630;DHT22;27322;49.488;8.480;2023-09-19T15:36:11;21.50;99.60
41630;DHT22;27322;49.488;8.480;2023-09-19T15:41:25;21.40;99.60
41630;DHT22;27322;49.488;8.480;2023-09-19T15:43:52;21.40;99.90
41630;DHT22;27322;49.488;8.480;2023-09-19T15:46:19;21.40;99.90
41630;DHT22;27322;49.488;8.480;2023-09-19T15:48:45;21.40;99.90
41630;DHT22;27322;49.488;8.480;2023-09-19T15:51:11;21.40;99.90
41630;DHT22;27322;49.488;8.480;2023-09-19T15:53:51;21.40;99.90
41630;DHT22;27322;49.488;8.480;2023-09-19T15:56:18;21.40;99.90
41630;DHT22;27322;49.488;8.480;2023-09-19T15:58:44;21.30;99.90
41630;DHT22;27322;49.488;8.480;2023-09-19T16:01:10;21.30;99.90
41630;DHT22;27322;49.488;8.480;2023-09-19T16:03:37;21.30;99.90
41630;DHT22;27322;49.488;8.480;2023-09-19T16:06:14;21.30;99.90
41630;DHT22;27322;49.488;8.480;2023-09-19T16:08:47;21.30;99.90
41630;DHT22;27322;49.488;8.480;2023-09-19T16:11:14;21.30;99.90
41630;DHT22;27322;49.488;8.480;2023-09-19T16:13:41;21.30;99.90
41630;DHT22;27322;49.488;8.480;2023-09-19T16:16:14;21.30;99.90
41630;DHT22;27322;49.488;8.480;2023-09-19T16:18:52;21.30;99.90
41630;DHT22;27322;49.488;8.480;2023-09-19T16:21:21;21.30;99.90
41630;DHT22;27322;49.488;8.480;2023-09-19T16:23:48;21.30;99.90
41630;DHT22;27322;49.488;8.480;2023-09-19T16:26:15;21.30;99.90
41630;DHT22;27322;49.488;8.480;2023-09-19T16:28:43;21.30;99.90